Time;durP1;ratioP1;P1;durP2;ratioP2;P2;SDS_P1;SDS_P2;PMS_P1;PMS_P2;Temp;Humidity;BMP_temperature;BMP_pressure;BME280_temperature;BME280_humidity;BME280_pressure;Samples;Min_cycle;Max_cycle;Signal;HPM_P1;HPM_P2
2022/01/23 00:00:04;;;;;;;34.50;22.08;;;;;;;4.50;91.13;103416.09;5024652;28;20083;-76
2022/01/23 00:02:33;;;;;;;35.38;22.23;;;;;;;4.52;91.48;103402.75;5033602;28;20064;-76
2022/01/23 00:05:04;;;;;;;35.15;22.25;;;;;;;4.50;91.20;103402.78;5027119;28;20053;-76
2022/01/23 00:07:31;;;;;;;38.72;22.05;;;;;;;4.50;91.02;103402.78;5022646;28;20025;-76
2022/01/23 00:09:56;;;;;;;38.33;21.17;;;;;;;4.51;91.17;103398.31;5027723;28;20521;-76
2022/01/23 00:12:24;;;;;;;36.65;20.52;;;;;;;4.51;90.77;103398.31;5026824;28;20098;-76
2022/01/23 00:17:34;;;;;;;35.67;20.73;;;;;;;4.52;91.03;103392.09;5015255;28;20099;-76
2022/01/23 00:20:03;;;;;;;35.47;21.27;;;;;;;4.50;91.28;103389.47;5025992;28;20025;-76
2022/01/23 00:22:41;;;;;;;33.83;20.10;;;;;;;4.49;91.22;103385.00;5031496;28;20470;-76
2022/01/23 00:30:36;;;;;;;35.63;20.90;;;;;;;4.48;91.37;103385.94;5044363;28;20512;-76
2022/01/23 00:33:04;;;;;;;34.10;21.70;;;;;;;4.47;91.27;103385.94;5046088;28;20057;-76
2022/01/23 00:35:30;;;;;;;33.33;21.25;;;;;;;4.47;90.83;103383.28;5039739;28;20595;-76
2022/01/23 00:37:57;;;;;;;34.25;20.00;;;;;;;4.47;91.08;103378.84;5025293;28;20484;-76
2022/01/23 00:40:24;;;;;;;38.40;23.27;;;;;;;4.48;91.38;103369.94;5038605;28;20029;-76
2022/01/23 00:42:49;;;;;;;32.90;20.30;;;;;;;4.47;91.29;103381.50;5041253;28;20021;-75
2022/01/23 00:47:58;;;;;;;36.70;21.05;;;;;;;4.46;91.65;103377.06;5008058;28;20414;-75
2022/01/23 00:50:23;;;;;;;33.58;20.02;;;;;;;4.46;91.44;103373.50;5020087;28;20444;-75
2022/01/23 00:52:49;;;;;;;36.38;20.77;;;;;;;4.47;91.53;103368.19;5027875;28;20025;-75
2022/01/23 00:55:14;;;;;;;32.60;20.60;;;;;;;4.47;91.39;103367.31;5035566;28;20043;-75
2022/01/23 00:57:39;;;;;;;34.53;21.13;;;;;;;4.49;91.11;103371.69;5036289;28;20025;-75
2022/01/23 01:00:07;;;;;;;36.47;20.48;;;;;;;4.49;91.16;103377.03;5029477;28;20033;-75
2022/01/23 01:02:32;;;;;;;34.38;21.25;;;;;;;4.47;91.25;103370.84;5030209;28;20420;-75
2022/01/23 01:04:57;;;;;;;33.60;18.52;;;;;;;4.48;90.94;103372.63;5029289;28;20022;-75
2022/01/23 01:07:23;;;;;;;33.90;20.02;;;;;;;4.48;91.03;103364.63;5032499;28;20091;-75
2022/01/23 01:09:51;;;;;;;39.15;21.27;;;;;;;4.49;90.51;103373.50;5036532;28;20132;-75
2022/01/23 01:12:20;;;;;;;33.60;20.15;;;;;;;4.46;90.80;103376.19;5037012;28;20123;-75
2022/01/23 01:17:35;;;;;;;33.13;19.75;;;;;;;4.46;91.36;103377.06;5027587;28;20036;-75
2022/01/23 01:36:15;;;;;;;32.95;19.55;;;;;;;4.43;91.13;103382.41;5030817;28;20033;-76
2022/01/23 01:38:40;;;;;;;33.65;20.95;;;;;;;4.44;91.56;103375.31;5035832;28;20484;-76
2022/01/23 01:41:05;;;;;;;34.28;21.10;;;;;;;4.43;91.56;103376.19;5031955;28;20030;-76
2022/01/23 01:43:30;;;;;;;36.05;21.17;;;;;;;4.41;91.16;103376.22;5029107;28;20032;-76
2022/01/23 01:45:56;;;;;;;31.52;19.65;;;;;;;4.41;91.37;103376.22;5028487;28;20029;-76
2022/01/23 01:48:24;;;;;;;34.00;20.55;;;;;;;4.41;91.58;103378.88;5038446;28;20504;-76
2022/01/23 01:50:50;;;;;;;36.42;20.92;;;;;;;4.43;91.45;103381.53;5039704;28;20108;-76
2022/01/23 01:53:15;;;;;;;34.78;20.92;;;;;;;4.44;91.72;103384.19;5026926;28;20132;-76
2022/01/23 01:55:46;;;;;;;30.13;18.08;;;;;;;4.44;91.34;103388.63;5030148;28;20112;-76
2022/01/23 02:00:57;;;;;;;34.72;19.73;;;;;;;4.45;91.40;103390.38;5033385;28;20117;-74
2022/01/23 02:08:58;;;;;;;36.72;20.75;;;;;;;4.44;91.67;103388.63;5037680;28;20136;-72
2022/01/23 02:11:42;;;;;;;35.72;18.70;;;;;;;4.43;91.89;103398.38;5038533;28;20136;-72
2022/01/23 02:14:35;;;;;;;32.10;19.52;;;;;;;4.41;91.30;103394.84;5022533;28;20209;-73
2022/01/23 02:17:21;;;;;;;36.53;20.25;;;;;;;4.40;92.17;103395.75;5030293;28;20363;-73
2022/01/23 02:22:56;;;;;;;33.42;17.75;;;;;;;4.41;92.09;103389.53;5022518;28;20124;-73
2022/01/23 02:54:57;;;;;;;33.60;20.08;;;;;;;4.42;91.13;103354.00;5045807;28;20136;-73
2022/01/23 02:57:39;;;;;;;32.42;18.05;;;;;;;4.41;91.27;103346.03;5036072;28;20462;-73
2022/01/23 03:00:12;;;;;;;33.50;19.83;;;;;;;4.42;91.65;103351.34;5033279;28;20021;-73
2022/01/23 03:02:43;;;;;;;36.95;19.20;;;;;;;4.41;92.02;103349.59;5035402;28;20465;-73
2022/01/23 03:05:12;;;;;;;31.35;19.35;;;;;;;4.41;91.56;103343.34;5030090;28;20061;-73
2022/01/23 03:08:01;;;;;;;36.40;21.07;;;;;;;4.41;91.43;103351.34;5029849;28;20022;-73
2022/01/23 03:10:36;;;;;;;34.03;19.73;;;;;;;4.42;91.93;103348.66;5030329;28;20675;-73
2022/01/23 03:13:39;;;;;;;38.70;19.95;;;;;;;4.42;91.60;103348.66;5025976;28;20040;-73
2022/01/23 03:16:16;;;;;;;36.35;19.20;;;;;;;4.44;91.85;103351.34;5029364;28;20057;-73
2022/01/23 03:30:13;;;;;;;33.00;18.73;;;;;;;4.43;91.87;103361.09;5025222;28;20476;-73
2022/01/23 03:32:42;;;;;;;34.80;18.25;;;;;;;4.44;91.24;103365.53;5041186;28;20103;-73
2022/01/23 03:35:08;;;;;;;35.30;20.35;;;;;;;4.44;91.40;103367.31;5014255;28;20084;-73
2022/01/23 03:37:34;;;;;;;33.03;20.13;;;;;;;4.44;91.52;103365.53;5023958;28;20033;-73
2022/01/23 03:39:59;;;;;;;34.45;19.38;;;;;;;4.45;91.33;103361.09;5020669;28;20025;-73
2022/01/23 03:42:26;;;;;;;35.97;21.27;;;;;;;4.44;91.42;103367.31;5036021;28;20033;-73
2022/01/23 03:45:21;;;;;;;33.88;19.77;;;;;;;4.44;91.42;103367.31;5025420;28;20083;-74
2022/01/23 03:47:53;;;;;;;35.97;20.85;;;;;;;4.43;91.60;103358.44;5017355;28;20425;-73
2022/01/23 03:50:18;;;;;;;32.50;19.08;;;;;;;4.43;91.68;103361.09;5030388;28;20099;-73
2022/01/23 03:52:43;;;;;;;31.50;19.05;;;;;;;4.43;91.20;103366.44;5025833;28;20163;-73
2022/01/23 03:55:09;;;;;;;32.65;18.85;;;;;;;4.43;91.72;103366.44;5029320;28;20040;-73
2022/01/23 03:57:34;;;;;;;33.78;20.05;;;;;;;4.42;91.60;103364.66;5008919;28;20183;-73
2022/01/23 04:00:00;;;;;;;35.28;20.55;;;;;;;4.41;91.77;103365.56;5008035;28;20034;-73
2022/01/23 04:02:25;;;;;;;35.33;21.58;;;;;;;4.40;91.64;103366.44;5039185;28;20104;-72
2022/01/23 04:04:50;;;;;;;38.53;22.42;;;;;;;4.45;91.79;103366.41;5014783;28;20034;-74
2022/01/23 04:07:21;;;;;;;40.38;21.15;;;;;;;4.42;91.50;103364.66;5023645;28;20025;-73
2022/01/23 04:09:47;;;;;;;33.75;21.25;;;;;;;4.41;91.80;103368.22;5027658;28;20043;-73
2022/01/23 04:15:12;;;;;;;34.85;21.55;;;;;;;4.41;91.06;103384.19;5023762;28;20037;-73
2022/01/23 04:18:28;;;;;;;39.35;21.75;;;;;;;4.38;91.34;103386.88;5028299;28;20032;-73
2022/01/23 04:33:59;;;;;;;38.35;22.80;;;;;;;4.37;92.15;103388.66;5044082;28;20611;-73
2022/01/23 04:48:23;;;;;;;36.05;22.05;;;;;;;4.38;92.04;103378.91;5028263;28;20045;-73
2022/01/23 05:01:12;;;;;;;37.63;21.92;;;;;;;4.36;92.09;103391.31;5026117;28;20048;-73
2022/01/23 05:04:09;;;;;;;44.80;24.00;;;;;;;4.35;91.54;103390.44;5025569;28;20021;-74
2022/01/23 05:07:18;;;;;;;41.35;22.52;;;;;;;4.38;91.97;103387.75;5026838;28;20056;-73
2022/01/23 05:09:23;;;;;;;38.08;23.15;;;;;;;4.39;92.00;103380.66;5038213;28;20430;-73
2022/01/23 05:11:54;;;;;;;36.88;23.83;;;;;;;4.38;92.19;103377.13;5027386;28;20045;-73
2022/01/23 05:14:27;;;;;;;39.50;24.73;;;;;;;4.36;91.96;103380.66;5028314;28;20071;-73
2022/01/23 05:16:53;;;;;;;36.28;22.23;;;;;;;4.36;91.66;103386.00;5030616;28;20104;-72
2022/01/23 05:19:18;;;;;;;38.28;21.40;;;;;;;4.35;91.82;103379.78;5049582;28;20112;-72
2022/01/23 05:24:30;;;;;;;37.80;23.27;;;;;;;4.35;92.00;103378.94;5031038;28;20140;-72
2022/01/23 05:27:00;;;;;;;34.28;21.30;;;;;;;4.32;92.13;103382.47;5030001;28;20367;-72
2022/01/23 05:29:27;;;;;;;35.42;20.77;;;;;;;4.32;92.73;103385.16;5029656;28;20017;-72
2022/01/23 05:31:53;;;;;;;37.90;22.08;;;;;;;4.33;92.67;103386.94;5033983;28;20021;-72
2022/01/23 05:34:20;;;;;;;36.58;21.75;;;;;;;4.32;92.66;103381.56;5030240;28;20032;-72
2022/01/23 05:36:46;;;;;;;40.10;22.40;;;;;;;4.31;92.12;103387.81;5028855;28;20022;-72
2022/01/23 05:39:11;;;;;;;37.10;20.65;;;;;;;4.33;91.86;103392.25;5032686;28;20095;-72
2022/01/23 05:41:36;;;;;;;36.65;22.08;;;;;;;4.35;92.13;103393.09;5031158;28;20029;-72
2022/01/23 05:44:02;;;;;;;37.55;22.58;;;;;;;4.35;92.15;103386.91;5028795;28;20022;-73
2022/01/23 05:46:27;;;;;;;44.30;22.42;;;;;;;4.34;92.40;103390.47;5028480;28;20444;-73
2022/01/23 05:48:52;;;;;;;36.15;21.40;;;;;;;4.34;92.58;103387.78;5045695;28;20036;-73
2022/01/23 05:51:18;;;;;;;37.50;21.48;;;;;;;4.31;92.48;103388.69;5036438;28;20547;-73
2022/01/23 05:53:43;;;;;;;37.50;21.75;;;;;;;4.31;92.34;103385.16;5028721;28;20670;-74
2022/01/23 05:56:09;;;;;;;38.45;21.67;;;;;;;4.30;92.62;103391.38;5031370;28;20029;-73
2022/01/23 05:58:34;;;;;;;36.80;20.80;;;;;;;4.27;92.58;103380.75;5028330;28;20103;-73
2022/01/23 06:01:00;;;;;;;34.88;21.35;;;;;;;4.28;92.87;103379.84;5032901;28;20030;-73
2022/01/23 06:03:25;;;;;;;36.13;21.20;;;;;;;4.27;92.64;103378.06;5028447;28;20021;-74
2022/01/23 06:05:50;;;;;;;35.55;19.50;;;;;;;4.25;92.80;103374.56;5041450;28;20028;-74
2022/01/23 06:08:16;;;;;;;36.47;22.83;;;;;;;4.24;92.92;103378.97;5031469;28;20022;-73
2022/01/23 06:10:55;;;;;;;35.58;23.13;;;;;;;4.25;92.93;103379.88;5035263;28;20032;-73
2022/01/23 06:13:21;;;;;;;38.08;22.58;;;;;;;4.26;93.02;103373.63;5032298;28;20030;-73
2022/01/23 06:15:47;;;;;;;39.92;23.35;;;;;;;4.29;92.84;103378.94;5028328;28;20042;-73
2022/01/23 06:18:12;;;;;;;38.75;23.25;;;;;;;4.28;92.68;103380.72;5029304;28;20108;-73
2022/01/23 06:20:38;;;;;;;40.40;23.58;;;;;;;4.27;92.20;103384.28;5029025;28;20478;-72
2022/01/23 06:23:03;;;;;;;34.65;21.08;;;;;;;4.28;92.68;103394.03;5026692;28;20057;-72
2022/01/23 06:25:34;;;;;;;39.95;23.20;;;;;;;4.28;92.58;103386.06;5033755;28;20127;-72
2022/01/23 06:28:03;;;;;;;39.40;22.25;;;;;;;4.28;93.13;103386.06;5036051;28;20017;-72
2022/01/23 06:30:28;;;;;;;39.58;24.10;;;;;;;4.30;92.67;103383.38;5025743;28;20025;-72
2022/01/23 06:32:53;;;;;;;40.20;24.70;;;;;;;4.31;93.03;103387.81;5035115;28;20052;-72
2022/01/23 06:35:19;;;;;;;36.10;24.00;;;;;;;4.30;92.73;103386.03;5033388;28;20022;-72
2022/01/23 06:37:44;;;;;;;38.15;25.13;;;;;;;4.30;92.53;103383.38;5028237;28;20064;-72
2022/01/23 06:40:10;;;;;;;40.80;22.48;;;;;;;4.31;92.55;103387.81;5029620;28;20021;-72
2022/01/23 06:42:35;;;;;;;36.30;22.50;;;;;;;4.31;92.18;103388.69;5028966;28;20076;-72
2022/01/23 06:45:00;;;;;;;40.33;25.17;;;;;;;4.30;92.15;103391.38;5027997;28;20021;-72
2022/01/23 06:47:26;;;;;;;38.90;23.52;;;;;;;4.31;92.35;103403.78;5026854;28;20033;-72
2022/01/23 06:49:51;;;;;;;39.95;25.33;;;;;;;4.31;92.16;103398.47;5026650;28;20118;-73
2022/01/23 06:52:16;;;;;;;39.03;24.40;;;;;;;4.32;92.61;103400.22;5028803;28;20166;-73
2022/01/23 06:54:42;;;;;;;37.78;24.13;;;;;;;4.33;92.41;103402.91;5029640;28;20926;-73
2022/01/23 06:57:07;;;;;;;39.67;25.15;;;;;;;4.32;92.02;103411.78;5032249;28;20049;-73
2022/01/23 06:59:32;;;;;;;41.58;24.10;;;;;;;4.30;92.18;103407.34;5026945;28;20122;-73
2022/01/23 07:01:58;;;;;;;40.22;25.00;;;;;;;4.33;92.74;103404.66;5033902;28;20453;-73
2022/01/23 07:04:23;;;;;;;43.70;25.17;;;;;;;4.31;92.63;103409.13;5028899;28;20048;-74
2022/01/23 07:06:49;;;;;;;37.28;23.65;;;;;;;4.32;92.41;103421.50;5025942;28;20017;-73
2022/01/23 07:09:14;;;;;;;38.47;24.35;;;;;;;4.31;92.58;103419.75;5031247;28;20407;-73
2022/01/23 07:11:39;;;;;;;38.40;24.60;;;;;;;4.32;92.34;103421.50;5038159;28;20148;-73
2022/01/23 07:14:05;;;;;;;38.97;24.00;;;;;;;4.29;92.31;103418.88;5028731;28;20021;-73
2022/01/23 07:16:30;;;;;;;40.70;23.73;;;;;;;4.30;92.82;103429.50;5026661;28;20034;-74
2022/01/23 07:18:55;;;;;;;40.53;24.50;;;;;;;4.29;92.31;103427.75;5028431;28;20418;-73
2022/01/23 07:21:21;;;;;;;43.10;24.45;;;;;;;4.27;92.52;103423.34;5029104;28;20120;-73
2022/01/23 07:23:50;;;;;;;36.05;22.58;;;;;;;4.28;92.64;103427.78;5028115;28;20055;-73
2022/01/23 07:26:17;;;;;;;42.72;24.42;;;;;;;4.29;92.55;103442.84;5030394;28;20435;-73
2022/01/23 07:28:44;;;;;;;38.90;23.70;;;;;;;4.27;92.75;103441.97;5032244;28;20036;-73
2022/01/23 07:31:10;;;;;;;41.22;23.38;;;;;;;4.28;92.96;103444.63;5031661;28;20052;-73
2022/01/23 07:33:36;;;;;;;46.70;27.00;;;;;;;4.27;92.56;103447.28;5029288;28;20102;-73
2022/01/23 07:36:03;;;;;;;38.65;24.60;;;;;;;4.30;92.91;103450.81;5041682;28;20420;-73
2022/01/23 07:38:30;;;;;;;38.72;24.13;;;;;;;4.30;92.38;103457.91;5029494;28;20026;-73
2022/01/23 07:40:55;;;;;;;43.38;25.83;;;;;;;4.27;91.97;103452.63;5032671;28;20021;-73
2022/01/23 07:43:21;;;;;;;37.17;24.75;;;;;;;4.29;92.86;103453.47;5029188;28;20078;-73
2022/01/23 07:45:46;;;;;;;42.80;25.10;;;;;;;4.30;92.62;103457.91;5026700;28;20457;-73
2022/01/23 07:48:11;;;;;;;38.50;24.10;;;;;;;4.28;93.00;103452.59;5036750;28;20444;-73
2022/01/23 07:50:37;;;;;;;38.60;25.17;;;;;;;4.27;92.57;103453.50;5035342;28;20017;-73
2022/01/23 07:53:04;;;;;;;39.15;24.10;;;;;;;4.29;92.38;103461.47;5026603;28;20021;-73
2022/01/23 07:55:30;;;;;;;38.83;24.15;;;;;;;4.27;92.43;103453.50;5028570;28;20029;-73
2022/01/23 07:58:02;;;;;;;39.15;23.77;;;;;;;4.29;92.64;103464.13;5029587;28;20485;-72
2022/01/23 08:00:28;;;;;;;42.05;26.08;;;;;;;4.30;92.32;103464.13;5026031;28;20025;-72
2022/01/23 08:02:53;;;;;;;41.97;25.67;;;;;;;4.29;92.22;103466.78;5026706;28;20033;-72
2022/01/23 08:05:18;;;;;;;38.97;23.80;;;;;;;4.28;92.15;103467.72;5036735;28;20083;-73
2022/01/23 08:07:44;;;;;;;40.63;25.05;;;;;;;4.28;92.45;103468.56;5032587;28;20029;-74
2022/01/23 08:10:10;;;;;;;41.08;25.60;;;;;;;4.28;92.36;103460.59;5028367;28;20386;-74
2022/01/23 08:12:35;;;;;;;41.65;26.88;;;;;;;4.31;92.54;103467.69;5026089;28;20073;-74
2022/01/23 08:15:03;;;;;;;41.10;25.10;;;;;;;4.31;92.36;103457.91;5041179;28;20042;-74
2022/01/23 08:17:28;;;;;;;37.45;24.52;;;;;;;4.31;92.24;103463.25;5028131;28;20401;-73
2022/01/23 08:19:58;;;;;;;43.10;25.85;;;;;;;4.32;92.82;103467.69;5035094;28;20025;-73
2022/01/23 08:22:25;;;;;;;42.72;26.73;;;;;;;4.35;92.57;103461.47;5027030;28;20064;-73
2022/01/23 08:24:51;;;;;;;42.45;27.00;;;;;;;4.34;92.49;103465.00;5030554;28;20034;-73
2022/01/23 08:27:16;;;;;;;41.60;24.77;;;;;;;4.33;92.67;103469.47;5027501;28;20394;-72
2022/01/23 08:29:42;;;;;;;42.42;26.58;;;;;;;4.35;93.05;103472.09;5038383;28;20055;-72
2022/01/23 08:32:08;;;;;;;39.28;25.13;;;;;;;4.35;92.81;103475.66;5029144;28;20033;-72
2022/01/23 08:34:35;;;;;;;40.00;23.63;;;;;;;4.36;92.49;103479.19;5027363;28;20048;-74
2022/01/23 08:37:01;;;;;;;40.22;25.02;;;;;;;4.37;92.63;103472.97;5033149;28;20033;-72
2022/01/23 08:39:26;;;;;;;40.38;24.48;;;;;;;4.40;92.93;103485.41;5028207;28;20051;-73
2022/01/23 08:41:52;;;;;;;40.53;24.88;;;;;;;4.41;92.86;103485.38;5027710;28;20072;-74
2022/01/23 08:44:23;;;;;;;43.60;27.58;;;;;;;4.44;92.83;103481.84;5026959;28;20036;-73
2022/01/23 08:46:48;;;;;;;39.95;24.90;;;;;;;4.44;92.87;103488.03;5027792;28;20033;-73
2022/01/23 08:49:17;;;;;;;45.00;26.85;;;;;;;4.48;92.96;103494.22;5031977;28;20486;-73
2022/01/23 08:51:43;;;;;;;49.88;29.80;;;;;;;4.45;92.48;103489.81;5029683;28;20026;-73
2022/01/23 08:54:08;;;;;;;40.25;26.40;;;;;;;4.47;92.35;103501.31;5032857;28;20108;-73
2022/01/23 08:56:34;;;;;;;45.30;25.52;;;;;;;4.50;93.09;103503.97;5033653;28;20128;-73
2022/01/23 08:58:59;;;;;;;40.13;25.48;;;;;;;4.51;92.57;103497.75;5035649;28;20029;-73
2022/01/23 09:01:24;;;;;;;43.35;25.88;;;;;;;4.51;92.41;103503.09;5034478;28;20461;-73
2022/01/23 09:03:50;;;;;;;40.42;24.80;;;;;;;4.52;92.53;103503.97;5046153;28;20037;-74
2022/01/23 09:06:15;;;;;;;39.05;25.67;;;;;;;4.51;92.03;103496.84;5029436;28;20045;-73
2022/01/23 09:08:41;;;;;;;42.05;25.73;;;;;;;4.51;92.36;103500.44;5050874;28;20042;-73
2022/01/23 09:11:23;;;;;;;40.20;24.60;;;;;;;4.52;92.78;103493.31;5039693;28;20035;-73
2022/01/23 09:16:14;;;;;;;41.05;24.58;;;;;;;4.58;92.16;103495.06;5030325;28;20037;-73
2022/01/23 09:18:39;;;;;;;41.22;25.15;;;;;;;4.60;91.90;103491.50;5029606;28;20368;-73
2022/01/23 09:21:04;;;;;;;46.35;24.83;;;;;;;4.61;92.07;103487.94;5030525;28;20506;-73
2022/01/23 09:23:30;;;;;;;36.97;25.20;;;;;;;4.66;92.02;103490.59;5030757;28;20113;-73
2022/01/23 09:25:57;;;;;;;44.17;27.52;;;;;;;4.68;91.93;103491.44;5029268;28;20124;-73
2022/01/23 09:28:30;;;;;;;43.88;26.10;;;;;;;4.72;91.75;103490.53;5029611;28;20029;-73
2022/01/23 09:30:56;;;;;;;41.47;25.77;;;;;;;4.73;91.35;103498.53;5035538;28;20020;-73
2022/01/23 09:33:22;;;;;;;42.00;27.98;;;;;;;4.77;91.29;103501.16;5032259;28;20323;-73
2022/01/23 09:35:47;;;;;;;42.10;27.23;;;;;;;4.79;91.67;103496.69;5037219;28;20045;-74
2022/01/23 09:38:12;;;;;;;43.75;27.30;;;;;;;4.80;91.31;103496.72;5029916;28;20044;-74
2022/01/23 09:40:42;;;;;;;41.65;25.73;;;;;;;4.82;91.40;103492.25;5030804;28;20030;-73
2022/01/23 09:43:19;;;;;;;39.95;25.15;;;;;;;4.84;91.51;103501.09;5030489;28;20055;-73
2022/01/23 09:45:48;;;;;;;41.08;26.20;;;;;;;4.83;91.56;103496.69;5029340;28;20029;-73
2022/01/23 09:48:18;;;;;;;44.38;26.17;;;;;;;4.86;91.39;103503.75;5033093;28;20564;-73
2022/01/23 09:50:46;;;;;;;41.38;27.33;;;;;;;4.88;91.20;103505.53;5030089;28;20619;-73
2022/01/23 09:53:14;;;;;;;37.70;24.88;;;;;;;4.90;91.16;103511.75;5028559;28;20029;-73
2022/01/23 09:55:41;;;;;;;44.95;26.42;;;;;;;4.92;90.23;103508.16;5030095;28;20021;-73
2022/01/23 09:58:06;;;;;;;39.65;24.33;;;;;;;4.94;90.77;103511.72;5027137;28;20036;-74
2022/01/23 10:00:32;;;;;;;43.13;26.65;;;;;;;4.95;90.42;103519.72;5027667;28;20116;-73
2022/01/23 10:02:58;;;;;;;47.83;27.30;;;;;;;4.98;90.79;103519.69;5043596;28;20029;-73
2022/01/23 10:05:23;;;;;;;46.38;27.73;;;;;;;5.00;91.15;103522.34;5028775;28;20103;-74
2022/01/23 10:07:49;;;;;;;44.88;27.17;;;;;;;5.02;90.01;103515.19;5028621;28;20049;-73
2022/01/23 10:10:22;;;;;;;42.97;27.48;;;;;;;5.02;90.30;103520.53;5025291;28;20041;-73
2022/01/23 10:12:50;;;;;;;38.97;26.42;;;;;;;5.04;89.74;103516.97;5012067;28;20495;-73
2022/01/23 10:15:18;;;;;;;42.08;27.17;;;;;;;5.07;90.02;103506.28;5026155;28;20025;-73
2022/01/23 10:17:43;;;;;;;45.05;28.23;;;;;;;5.11;89.96;103509.81;5026422;28;20021;-73
2022/01/23 10:20:11;;;;;;;40.72;27.65;;;;;;;5.14;90.33;103514.22;5027004;28;20541;-74
2022/01/23 10:22:37;;;;;;;42.70;27.15;;;;;;;5.13;89.39;103516.03;5028494;28;20021;-73
2022/01/23 10:25:15;;;;;;;42.20;26.38;;;;;;;5.17;89.61;103516.88;5029970;28;20033;-73
2022/01/23 10:27:52;;;;;;;41.35;26.02;;;;;;;5.17;89.06;103512.44;5018733;28;20025;-73
2022/01/23 10:30:23;;;;;;;41.95;25.50;;;;;;;5.15;89.21;103502.69;5029170;28;20036;-73
2022/01/23 10:32:59;;;;;;;43.17;26.75;;;;;;;5.18;89.56;103505.31;5030094;28;20108;-74
2022/01/23 10:35:25;;;;;;;40.22;25.63;;;;;;;5.20;89.41;103504.41;5027851;28;20389;-74
2022/01/23 10:37:52;;;;;;;40.78;27.92;;;;;;;5.21;88.90;103503.53;5029086;28;20393;-74
2022/01/23 10:40:34;;;;;;;39.03;26.67;;;;;;;5.27;89.14;103501.69;5028495;28;20022;-74
2022/01/23 10:50:53;;;;;;;41.58;25.88;;;;;;;5.32;88.59;103506.09;5027470;28;20041;-74
2022/01/23 10:53:18;;;;;;;41.22;25.65;;;;;;;5.30;88.26;103505.25;5028383;28;20091;-74
2022/01/23 10:55:45;;;;;;;40.53;25.80;;;;;;;5.32;88.86;103502.56;5025659;28;20116;-74
2022/01/23 10:58:24;;;;;;;42.80;26.38;;;;;;;5.35;88.92;103497.19;5016734;28;20470;-74
2022/01/23 11:00:50;;;;;;;45.80;26.42;;;;;;;5.40;88.68;103493.59;5030234;28;20037;-74
2022/01/23 11:03:23;;;;;;;42.42;28.58;;;;;;;5.48;89.27;103497.97;5039396;28;20040;-74
2022/01/23 11:05:50;;;;;;;45.33;29.48;;;;;;;5.52;88.18;103500.59;5027761;28;20688;-74
2022/01/23 11:08:20;;;;;;;39.63;25.83;;;;;;;5.56;87.69;103502.34;5024328;28;20354;-74
2022/01/23 11:10:57;;;;;;;42.22;28.00;;;;;;;5.63;88.25;103502.28;5027434;28;20417;-73
2022/01/23 11:19:30;;;;;;;39.47;26.15;;;;;;;5.68;87.33;103484.41;5028241;28;20203;-73
2022/01/23 11:21:59;;;;;;;46.30;28.67;;;;;;;5.73;87.16;103483.47;5028893;28;20204;-74
2022/01/23 11:24:35;;;;;;;42.10;25.60;;;;;;;5.76;87.61;103483.44;5027075;28;20037;-73
2022/01/23 11:27:02;;;;;;;42.42;26.80;;;;;;;5.76;87.00;103482.56;5026873;28;20442;-74
2022/01/23 11:29:27;;;;;;;42.35;26.90;;;;;;;5.75;86.46;103484.34;5025236;28;20102;-74
2022/01/23 11:31:53;;;;;;;44.50;26.67;;;;;;;5.77;87.28;103474.53;5029102;28;20474;-74
2022/01/23 11:34:21;;;;;;;42.10;27.25;;;;;;;5.78;86.74;103468.31;5027714;28;20056;-74
2022/01/23 11:36:46;;;;;;;45.30;26.55;;;;;;;5.82;87.11;103473.59;5029452;28;20072;-74
2022/01/23 11:39:21;;;;;;;42.47;27.25;;;;;;;5.85;87.92;103474.44;5028527;28;20116;-74
2022/01/23 11:53:46;;;;;;;38.60;26.17;;;;;;;6.02;86.61;103460.94;5028991;28;20103;-74
2022/01/23 11:56:26;;;;;;;37.55;25.58;;;;;;;6.04;86.78;103460.94;5023280;28;20095;-74
2022/01/23 11:58:54;;;;;;;38.53;24.23;;;;;;;6.01;86.27;103459.16;5027288;28;20048;-74
2022/01/23 12:01:24;;;;;;;44.72;27.50;;;;;;;6.01;86.70;103459.16;5026684;28;20121;-73
2022/01/23 12:04:07;;;;;;;39.47;22.83;;;;;;;6.04;86.29;103458.25;5027518;28;20027;-74
2022/01/23 12:06:34;;;;;;;40.13;25.42;;;;;;;6.02;85.83;103463.63;5026722;28;21122;-74
2022/01/23 12:09:19;;;;;;;42.95;25.30;;;;;;;6.02;86.38;103452.03;5027022;28;20069;-74
2022/01/23 12:12:05;;;;;;;37.13;23.13;;;;;;;6.04;87.34;103452.91;5026409;28;20041;-74
2022/01/23 12:16:24;;;;;;;35.65;21.52;;;;;;;6.00;85.09;103452.06;5027062;28;20030;-74
2022/01/23 12:17:23;;;;;;;39.08;22.25;;;;;;;6.05;84.92;103452.03;5026490;28;20041;-74
2022/01/23 12:19:55;;;;;;;38.60;22.17;;;;;;;6.05;84.12;103444.03;5026811;28;20040;-73
2022/01/23 12:22:34;;;;;;;39.38;23.30;;;;;;;6.06;84.47;103438.66;5024947;28;20033;-75
2022/01/23 12:25:23;;;;;;;36.70;22.60;;;;;;;6.09;85.04;103443.06;5025398;28;20442;-74
2022/01/23 12:28:09;;;;;;;37.70;23.60;;;;;;;6.09;85.75;103440.38;5028060;28;20212;-74
2022/01/23 12:30:34;;;;;;;39.03;24.75;;;;;;;6.08;85.81;103442.19;5024846;28;20287;-74
2022/01/23 12:33:17;;;;;;;41.45;26.30;;;;;;;6.10;86.39;103435.00;5034358;28;20028;-73
2022/01/23 12:35:50;;;;;;;40.95;24.95;;;;;;;6.09;86.23;103432.38;5038075;28;20041;-74
2022/01/23 12:38:16;;;;;;;40.63;27.23;;;;;;;6.12;85.83;103437.69;5026578;28;20400;-72
2022/01/23 12:40:46;;;;;;;39.40;24.63;;;;;;;6.12;85.85;103435.03;5034429;28;20060;-73
2022/01/23 12:43:18;;;;;;;36.88;23.73;;;;;;;6.14;85.55;103429.66;5036042;28;20523;-73
2022/01/23 12:46:05;;;;;;;42.13;24.33;;;;;;;6.17;86.40;103418.94;5025390;28;20327;-73
2022/01/23 12:48:36;;;;;;;36.95;23.08;;;;;;;6.16;84.78;103426.06;5015453;28;20541;-74
2022/01/23 12:51:17;;;;;;;42.88;24.83;;;;;;;6.17;84.82;103421.63;5016170;28;20108;-73
2022/01/23 12:53:48;;;;;;;36.25;25.27;;;;;;;6.13;84.49;103434.09;5018275;28;20033;-74
2022/01/23 12:56:20;;;;;;;38.85;24.50;;;;;;;6.12;83.83;103427.03;5018296;28;20492;-74
2022/01/23 12:58:51;;;;;;;40.28;27.65;;;;;;;6.16;84.33;103425.19;5017985;28;20095;-73
2022/01/23 13:01:19;;;;;;;38.05;24.65;;;;;;;6.16;84.74;103414.50;5014883;28;20029;-73
2022/01/23 13:03:56;;;;;;;37.85;24.10;;;;;;;6.19;85.37;103419.78;5018382;28;20037;-73
2022/01/23 13:06:42;;;;;;;42.15;25.05;;;;;;;6.19;84.62;103418.00;5014720;28;20517;-74
2022/01/23 13:09:15;;;;;;;44.22;26.83;;;;;;;6.18;83.25;103410.00;5015681;28;20029;-75
2022/01/23 13:12:07;;;;;;;39.65;27.38;;;;;;;6.20;84.47;103409.09;5016094;28;20150;-75
2022/01/23 13:14:58;;;;;;;39.30;25.17;;;;;;;6.20;84.62;103409.09;5015278;28;20025;-74
2022/01/23 13:17:49;;;;;;;40.88;27.05;;;;;;;6.22;84.33;103401.97;5016769;28;20041;-73
2022/01/23 13:26:31;;;;;;;44.45;29.95;;;;;;;6.21;84.50;103405.53;5022564;28;20048;-72
2022/01/23 13:31:55;;;;;;;43.22;25.52;;;;;;;6.22;84.05;103399.28;5035505;28;20041;-73
2022/01/23 13:34:45;;;;;;;42.22;27.27;;;;;;;6.20;83.88;103401.06;5050764;28;20028;-74
2022/01/23 13:37:15;;;;;;;44.38;27.50;;;;;;;6.19;83.80;103401.97;5015045;28;20512;-74
2022/01/23 13:39:57;;;;;;;42.90;28.33;;;;;;;6.22;84.32;103391.28;5028959;28;20458;-74
2022/01/23 13:48:27;;;;;;;45.30;27.40;;;;;;;6.23;84.04;103398.34;5023395;28;20413;-73
2022/01/23 13:59:17;;;;;;;41.28;27.42;;;;;;;6.28;84.54;103387.59;5019217;28;20059;-73
2022/01/23 14:01:56;;;;;;;42.13;27.40;;;;;;;6.28;84.87;103384.94;5019787;28;20119;-72
2022/01/23 14:04:25;;;;;;;43.95;27.73;;;;;;;6.29;84.42;103384.91;5019736;28;20037;-72
2022/01/23 14:06:50;;;;;;;42.13;28.05;;;;;;;6.30;84.48;103380.47;5016683;28;20025;-73
2022/01/23 14:09:17;;;;;;;42.17;26.80;;;;;;;6.29;84.92;103376.91;5017777;28;20044;-72
2022/01/23 14:11:47;;;;;;;42.80;28.45;;;;;;;6.30;84.58;103372.47;5019693;28;20119;-71
2022/01/23 14:14:19;;;;;;;41.72;28.23;;;;;;;6.30;84.60;103373.34;5019369;28;20029;-71
2022/01/23 14:16:46;;;;;;;39.97;28.45;;;;;;;6.29;84.38;103371.56;5018371;28;20037;-72
2022/01/23 14:19:22;;;;;;;39.08;26.90;;;;;;;6.28;84.36;103372.50;5018129;28;20742;-72
2022/01/23 14:21:51;;;;;;;44.70;28.95;;;;;;;6.27;84.56;103377.84;5016910;28;20056;-72